createdAt,value
2022-11-03T00:01:12.712Z,16.67
2022-11-03T00:03:39.685Z,16.65
2022-11-03T00:06:06.841Z,17.10
2022-11-03T00:08:39.559Z,17.05
2022-11-03T00:11:14.005Z,16.93
2022-11-03T00:13:43.047Z,16.40
2022-11-03T00:16:12.394Z,16.27
2022-11-03T00:18:39.876Z,16.65
2022-11-03T00:21:09.704Z,16.57
2022-11-03T00:23:39.493Z,16.44
2022-11-03T00:26:11.283Z,16.86
2022-11-03T00:28:38.781Z,16.87
2022-11-03T00:31:14.415Z,16.59
2022-11-03T00:33:42.836Z,17.02
2022-11-03T00:36:16.939Z,17.12
2022-11-03T00:38:44.899Z,17.18
2022-11-03T00:41:12.742Z,17.36
2022-11-03T00:43:40.183Z,17.50
2022-11-03T00:46:08.388Z,17.79
2022-11-03T00:48:36.669Z,17.79
2022-11-03T00:51:15.979Z,17.47
2022-11-03T00:53:47.910Z,17.84
2022-11-03T00:56:20.354Z,17.49
2022-11-03T00:58:47.286Z,17.33
2022-11-03T01:01:19.973Z,17.51
2022-11-03T01:04:09.319Z,17.23
2022-11-03T01:06:50.567Z,17.28
2022-11-03T01:09:22.143Z,16.90
2022-11-03T01:12:11.928Z,17.21
2022-11-03T01:14:41.769Z,17.41
2022-11-03T01:17:14.299Z,17.06
2022-11-03T01:19:41.845Z,17.00
2022-11-03T01:22:10.993Z,16.93
2022-11-03T01:24:40.519Z,17.31
2022-11-03T01:27:08.751Z,16.96
2022-11-03T01:29:35.704Z,16.85
2022-11-03T01:32:02.532Z,17.15
2022-11-03T01:34:29.390Z,16.64
2022-11-03T01:36:56.258Z,16.13
2022-11-03T01:39:23.157Z,16.25
2022-11-03T01:41:51.726Z,15.65
2022-11-03T01:44:18.541Z,15.56
2022-11-03T01:46:59.564Z,15.67
2022-11-03T01:49:44.816Z,15.93
2022-11-03T01:52:47.980Z,15.72
2022-11-03T01:55:20.228Z,15.96
2022-11-03T01:57:55.843Z,16.40
2022-11-03T02:00:23.163Z,16.62
2022-11-03T02:02:50.693Z,16.28
2022-11-03T02:05:19.076Z,16.35
2022-11-03T02:08:14.077Z,16.52
2022-11-03T02:10:41.227Z,16.68
2022-11-03T02:13:19.710Z,16.67
2022-11-03T02:15:54.131Z,16.19
2022-11-03T02:18:26.401Z,16.55
2022-11-03T02:21:25.299Z,16.20
2022-11-03T02:24:13.372Z,16.60
2022-11-03T02:26:42.299Z,16.49
2022-11-03T02:29:09.184Z,16.45
2022-11-03T02:31:43.300Z,16.69
2022-11-03T02:34:16.724Z,16.41
2022-11-03T02:36:51.538Z,16.47
2022-11-03T02:39:30.037Z,16.78
2022-11-03T02:41:59.788Z,16.89
2022-11-03T02:44:28.636Z,17.00
2022-11-03T02:47:00.888Z,16.45
2022-11-03T02:49:28.205Z,16.40
2022-11-03T02:52:05.691Z,16.55
2022-11-03T02:54:38.608Z,16.73
2022-11-03T02:57:21.433Z,16.16
2022-11-03T03:00:13.221Z,16.03
2022-11-03T03:02:51.710Z,15.96
2022-11-03T03:05:21.443Z,15.84
2022-11-03T03:07:52.549Z,16.30
2022-11-03T03:10:26.637Z,16.29
2022-11-03T03:12:57.279Z,16.02
2022-11-03T03:15:38.079Z,16.11
2022-11-03T03:18:16.047Z,16.02
2022-11-03T03:20:59.996Z,16.15
2022-11-03T03:23:31.521Z,16.66
2022-11-03T03:26:03.401Z,15.82
2022-11-03T03:28:39.811Z,15.87
2022-11-03T03:31:11.847Z,15.95
2022-11-03T03:33:41.979Z,15.80
2022-11-03T03:36:15.956Z,15.74
2022-11-03T03:38:49.279Z,15.90
2022-11-03T03:41:23.153Z,15.90
2022-11-03T03:43:57.523Z,16.23
2022-11-03T03:46:29.450Z,15.97
2022-11-03T03:48:56.398Z,15.75
2022-11-03T03:51:26.637Z,15.52
2022-11-03T03:53:55.452Z,15.71
2022-11-03T03:56:33.013Z,15.58
2022-11-03T03:58:59.914Z,16.14
2022-11-03T04:01:27.056Z,16.16
2022-11-03T04:03:54.162Z,16.00
2022-11-03T04:06:21.095Z,15.84
2022-11-03T04:08:47.947Z,15.06
2022-11-03T04:11:33.521Z,15.28
2022-11-03T04:14:18.603Z,15.22
2022-11-03T04:17:04.013Z,14.84
2022-11-03T04:19:49.641Z,14.40
2022-11-03T04:22:16.446Z,14.91
2022-11-03T04:24:51.204Z,14.54
2022-11-03T04:27:41.367Z,14.30
2022-11-03T04:30:19.305Z,14.63
2022-11-03T04:32:51.211Z,15.22
2022-11-03T04:35:24.618Z,15.48
2022-11-03T04:38:14.727Z,15.29
2022-11-03T04:40:49.128Z,15.21
2022-11-03T04:43:20.668Z,15.11
2022-11-03T04:45:48.581Z,14.83
2022-11-03T04:48:27.157Z,14.63
2022-11-03T04:50:57.332Z,14.40
2022-11-03T04:53:28.268Z,14.67
2022-11-03T04:55:55.341Z,14.63
2022-11-03T04:58:24.127Z,15.03
2022-11-03T05:00:57.574Z,14.57
2022-11-03T05:03:27.789Z,14.36
2022-11-03T05:05:54.681Z,14.73
2022-11-03T05:08:22.254Z,14.83
2022-11-03T05:10:49.784Z,15.18
2022-11-03T05:13:28.999Z,15.14
2022-11-03T05:16:03.235Z,15.19
2022-11-03T05:18:33.971Z,15.66
2022-11-03T05:21:06.855Z,15.36
2022-11-03T05:23:40.646Z,15.08
2022-11-03T05:26:43.303Z,15.98
2022-11-03T05:29:10.630Z,16.60
2022-11-03T05:31:40.934Z,16.56
2022-11-03T05:34:32.706Z,16.56
2022-11-03T05:37:09.328Z,16.98
2022-11-03T05:39:37.560Z,18.53
2022-11-03T05:42:36.598Z,19.68
2022-11-03T05:45:15.611Z,21.51
2022-11-03T05:47:42.822Z,21.46
2022-11-03T05:50:25.287Z,21.38
2022-11-03T05:53:23.261Z,22.99
2022-11-03T05:55:50.156Z,24.09
2022-11-03T05:58:25.668Z,24.50
2022-11-03T06:00:53.082Z,24.20
2022-11-03T06:03:27.708Z,24.12
2022-11-03T06:05:55.905Z,24.29
2022-11-03T06:08:27.912Z,24.66
2022-11-03T06:11:00.200Z,24.65
2022-11-03T06:13:34.277Z,25.33
2022-11-03T06:16:17.826Z,24.88
2022-11-03T06:18:44.815Z,24.81
2022-11-03T06:21:16.474Z,24.13
2022-11-03T06:23:43.538Z,24.92
2022-11-03T06:26:25.533Z,25.33
2022-11-03T06:28:53.187Z,26.30
2022-11-03T06:31:27.637Z,27.64
2022-11-03T06:33:57.440Z,28.27
2022-11-03T06:36:32.663Z,28.99
2022-11-03T06:39:09.814Z,28.58
2022-11-03T06:41:37.258Z,28.19
2022-11-03T06:44:20.510Z,27.87
2022-11-03T06:46:47.482Z,27.94
2022-11-03T06:49:35.989Z,27.25
2022-11-03T06:52:18.098Z,25.73
2022-11-03T06:54:48.660Z,26.48
2022-11-03T06:57:18.807Z,26.71
2022-11-03T06:59:46.124Z,27.61
2022-11-03T07:02:41.808Z,26.85
2022-11-03T07:05:22.623Z,27.31
2022-11-03T07:07:51.901Z,26.88
2022-11-03T07:10:18.756Z,26.94
2022-11-03T07:12:45.865Z,27.02
2022-11-03T07:15:35.033Z,26.84
2022-11-03T07:18:03.848Z,26.16
2022-11-03T07:20:30.911Z,25.13
2022-11-03T07:23:01.481Z,25.63
2022-11-03T07:25:28.409Z,26.14
2022-11-03T07:27:57.623Z,25.14
2022-11-03T07:30:30.167Z,25.35
2022-11-03T07:33:21.137Z,23.75
2022-11-03T07:38:35.563Z,23.64
2022-11-03T07:41:02.558Z,25.08
2022-11-03T07:43:32.029Z,24.79
2022-11-03T07:46:01.996Z,24.62
2022-11-03T07:48:33.790Z,25.82
2022-11-03T07:51:06.229Z,26.30
2022-11-03T07:53:43.930Z,27.47
2022-11-03T07:56:19.284Z,27.78
2022-11-03T07:58:48.052Z,27.90
2022-11-03T08:01:36.659Z,29.24
2022-11-03T08:04:31.376Z,27.46
2022-11-03T08:06:58.377Z,26.27
2022-11-03T08:09:25.486Z,25.21
2022-11-03T08:11:52.435Z,24.84
2022-11-03T08:14:19.332Z,23.11
2022-11-03T08:16:46.471Z,22.37
2022-11-03T08:19:13.421Z,22.24
2022-11-03T08:21:40.258Z,22.08
2022-11-03T08:24:07.335Z,22.65
2022-11-03T08:26:34.271Z,22.85
2022-11-03T08:29:01.171Z,22.60
2022-11-03T08:31:28.139Z,23.16
2022-11-03T08:33:55.105Z,23.53
2022-11-03T08:36:22.066Z,24.94
2022-11-03T08:38:49.013Z,27.28
2022-11-03T08:41:15.914Z,27.06
2022-11-03T08:43:42.870Z,27.88
2022-11-03T08:46:17.034Z,27.57
2022-11-03T08:48:45.915Z,28.77
2022-11-03T08:51:14.778Z,30.54
2022-11-03T08:53:42.953Z,27.55
2022-11-03T08:56:12.973Z,27.11
2022-11-03T08:58:41.302Z,26.72
2022-11-03T09:01:10.163Z,27.90
2022-11-03T09:03:37.117Z,27.74
2022-11-03T09:06:04.263Z,26.58
2022-11-03T09:11:18.338Z,29.29
2022-11-03T09:13:45.172Z,29.09
2022-11-03T09:16:12.231Z,28.21
2022-11-03T09:18:39.118Z,29.41
2022-11-03T09:21:06.431Z,30.07
2022-11-03T09:23:33.436Z,28.77
2022-11-03T09:26:00.270Z,29.09
2022-11-03T09:28:27.109Z,27.74
2022-11-03T09:30:54.871Z,28.45
2022-11-03T09:33:21.883Z,28.96
2022-11-03T09:35:49.564Z,28.72
2022-11-03T09:38:17.326Z,27.41
2022-11-03T09:40:44.444Z,27.74
2022-11-03T09:43:11.920Z,28.61
2022-11-03T09:45:39.594Z,28.98
2022-11-03T09:48:10.756Z,28.22
2022-11-03T09:50:38.276Z,28.33
2022-11-03T09:53:05.948Z,27.95
2022-11-03T09:55:33.959Z,28.43
2022-11-03T09:58:10.747Z,30.38
2022-11-03T10:00:38.861Z,29.92
2022-11-03T10:03:07.068Z,28.03
2022-11-03T10:05:35.430Z,28.51
2022-11-03T10:08:12.451Z,29.34
2022-11-03T10:10:41.022Z,29.24
2022-11-03T10:13:09.853Z,30.17
2022-11-03T10:15:37.045Z,29.10
2022-11-03T10:18:03.982Z,28.93
2022-11-03T10:20:31.016Z,29.01
2022-11-03T10:22:57.955Z,29.06
2022-11-03T10:25:30.908Z,30.82
2022-11-03T10:28:18.527Z,31.45
2022-11-03T10:31:13.023Z,31.95
2022-11-03T10:34:00.692Z,29.70
2022-11-03T10:36:32.272Z,29.00
2022-11-03T10:39:02.439Z,27.84
2022-11-03T10:41:32.323Z,26.03
2022-11-03T10:44:08.702Z,25.11
2022-11-03T10:46:49.630Z,25.31
2022-11-03T10:49:19.794Z,24.13
2022-11-03T10:51:52.758Z,23.58
2022-11-03T10:54:24.919Z,24.09
2022-11-03T10:56:52.771Z,25.73
2022-11-03T10:59:33.043Z,25.55
2022-11-03T11:02:01.101Z,25.43
2022-11-03T11:04:28.315Z,24.88
2022-11-03T11:06:55.401Z,23.81
2022-11-03T11:09:28.148Z,22.96
2022-11-03T11:12:15.890Z,22.76
2022-11-03T11:15:30.520Z,22.86
2022-11-03T11:17:57.443Z,22.15
2022-11-03T11:20:36.479Z,22.09
2022-11-03T11:23:28.118Z,22.00
2022-11-03T11:26:26.303Z,21.97
2022-11-03T11:29:20.555Z,21.55
2022-11-03T11:31:47.481Z,21.21
2022-11-03T11:34:18.326Z,21.64
2022-11-03T11:36:49.953Z,21.67
2022-11-03T11:39:23.050Z,21.93
2022-11-03T11:42:21.530Z,21.94
2022-11-03T11:44:51.612Z,21.78
2022-11-03T11:47:26.639Z,21.22
2022-11-03T11:50:11.664Z,21.43
2022-11-03T11:52:44.856Z,21.27
2022-11-03T11:55:29.544Z,20.87
2022-11-03T11:57:58.286Z,20.51
2022-11-03T12:00:29.052Z,20.17
2022-11-03T12:02:57.239Z,20.46
2022-11-03T12:05:27.981Z,20.05
2022-11-03T12:07:55.872Z,20.69
2022-11-03T12:10:28.501Z,20.08
2022-11-03T12:12:56.774Z,20.20
2022-11-03T12:15:55.399Z,20.69
2022-11-03T12:18:29.001Z,20.43
2022-11-03T12:20:55.953Z,19.94
2022-11-03T12:23:39.983Z,19.92
2022-11-03T12:26:15.871Z,20.30
2022-11-03T12:28:43.489Z,20.49
2022-11-03T12:31:10.512Z,20.16
2022-11-03T12:33:37.449Z,20.14
2022-11-03T12:36:04.485Z,19.69
2022-11-03T12:38:31.409Z,19.20
2022-11-03T12:40:58.363Z,19.34
2022-11-03T12:43:25.231Z,19.32
2022-11-03T12:45:52.431Z,19.91
2022-11-03T12:48:19.794Z,19.65
2022-11-03T12:50:46.785Z,19.56
2022-11-03T12:53:13.649Z,19.69
2022-11-03T12:55:43.662Z,20.21
2022-11-03T12:58:11.756Z,19.53
2022-11-03T13:00:38.755Z,19.06
2022-11-03T13:03:05.921Z,18.63
2022-11-03T13:05:33.100Z,18.31
2022-11-03T13:07:59.920Z,18.69
2022-11-03T13:10:26.808Z,19.41
2022-11-03T13:12:53.878Z,19.99
2022-11-03T13:15:21.198Z,19.56
2022-11-03T13:20:36.080Z,18.45
2022-11-03T13:23:04.702Z,18.66
2022-11-03T13:25:31.912Z,18.39
2022-11-03T13:27:58.993Z,17.59
2022-11-03T13:30:27.178Z,17.11
2022-11-03T13:32:54.353Z,17.12
2022-11-03T13:35:25.188Z,17.07
2022-11-03T13:37:52.198Z,17.34
2022-11-03T13:40:50.390Z,17.38
2022-11-03T13:43:07.537Z,17.69
2022-11-03T13:45:34.960Z,17.60
2022-11-03T13:50:52.115Z,17.57
2022-11-03T13:56:08.816Z,17.08
2022-11-03T14:01:24.773Z,16.80
2022-11-03T14:06:39.197Z,16.56
2022-11-03T14:09:06.161Z,16.62
2022-11-03T14:11:51.547Z,16.35
2022-11-03T14:14:18.524Z,16.32
2022-11-03T14:16:45.495Z,16.44
2022-11-03T14:19:12.492Z,16.29
2022-11-03T14:21:42.765Z,16.34
2022-11-03T14:24:09.871Z,16.45
2022-11-03T14:26:44.456Z,16.29
2022-11-03T14:29:11.569Z,16.65
2022-11-03T14:31:38.602Z,16.58
2022-11-03T14:34:05.553Z,16.71
2022-11-03T14:36:32.515Z,16.52
2022-11-03T14:38:59.718Z,16.43
2022-11-03T14:41:45.388Z,16.51
2022-11-03T14:44:12.701Z,16.29
2022-11-03T14:46:39.649Z,16.12
2022-11-03T14:49:06.534Z,16.27
2022-11-03T14:51:33.361Z,16.22
2022-11-03T14:54:00.289Z,16.09
2022-11-03T14:56:27.498Z,15.61
2022-11-03T14:58:55.017Z,15.44
2022-11-03T15:01:21.964Z,15.40
2022-11-03T15:03:48.924Z,15.23
2022-11-03T15:06:15.828Z,15.50
2022-11-03T15:08:42.946Z,15.60
2022-11-03T15:11:10.653Z,15.53
2022-11-03T15:13:43.980Z,15.38
2022-11-03T15:16:14.127Z,15.37
2022-11-03T15:18:41.739Z,15.20
2022-11-03T15:21:08.642Z,14.88
2022-11-03T15:26:22.534Z,15.12
2022-11-03T15:28:49.515Z,15.05
2022-11-03T15:31:16.452Z,15.21
2022-11-03T15:33:43.359Z,15.22
2022-11-03T15:36:10.439Z,15.40
2022-11-03T15:38:37.405Z,15.51
2022-11-03T15:41:16.635Z,15.39
2022-11-03T15:43:45.171Z,15.53
2022-11-03T15:46:13.982Z,15.79
2022-11-03T15:48:41.250Z,15.94
2022-11-03T15:51:08.665Z,16.13
2022-11-03T15:53:35.707Z,16.47
2022-11-03T15:56:03.006Z,16.39
2022-11-03T15:58:33.848Z,16.12
2022-11-03T16:01:04.214Z,16.24
2022-11-03T16:03:32.254Z,16.42
2022-11-03T16:05:59.478Z,16.77
2022-11-03T16:08:26.485Z,16.81
2022-11-03T16:10:57.703Z,16.70
2022-11-03T16:13:25.505Z,16.54
2022-11-03T16:15:54.713Z,16.32
2022-11-03T16:18:22.033Z,16.17
2022-11-03T16:20:49.031Z,16.03
2022-11-03T16:23:15.859Z,15.81
2022-11-03T16:25:43.116Z,15.76
2022-11-03T16:28:10.549Z,15.82
2022-11-03T16:30:38.801Z,16.24
2022-11-03T16:33:06.050Z,16.22
2022-11-03T16:35:33.353Z,16.14
2022-11-03T16:38:00.401Z,16.05
2022-11-03T16:40:27.649Z,15.76
2022-11-03T16:42:55.241Z,16.02
2022-11-03T16:45:25.962Z,16.04
2022-11-03T16:47:53.008Z,15.73
2022-11-03T16:50:20.765Z,15.33
2022-11-03T16:52:49.377Z,15.23
2022-11-03T16:55:18.149Z,15.40
2022-11-03T16:57:46.269Z,15.36
2022-11-03T17:00:19.674Z,15.18
2022-11-03T17:02:47.895Z,15.22
2022-11-03T17:05:19.023Z,15.23
2022-11-03T17:07:52.856Z,15.69
2022-11-03T17:10:21.818Z,15.45
2022-11-03T17:12:49.932Z,15.23
2022-11-03T17:15:20.237Z,14.97
2022-11-03T17:17:47.699Z,15.07
2022-11-03T17:20:15.613Z,15.11
2022-11-03T17:22:42.741Z,15.31
2022-11-03T17:25:11.761Z,15.29
2022-11-03T17:27:45.592Z,15.24
2022-11-03T17:30:21.569Z,15.08
2022-11-03T17:32:51.427Z,14.99
2022-11-03T17:35:24.576Z,15.06
2022-11-03T17:37:52.788Z,15.06
2022-11-03T17:40:29.396Z,14.95
2022-11-03T17:42:56.904Z,14.70
2022-11-03T17:45:25.994Z,14.71
2022-11-03T17:47:54.060Z,14.71
2022-11-03T17:50:23.869Z,15.00
2022-11-03T17:52:52.606Z,15.05
2022-11-03T17:55:29.822Z,14.89
2022-11-03T17:58:00.636Z,14.83
2022-11-03T18:00:28.431Z,14.92
2022-11-03T18:02:56.517Z,14.80
2022-11-03T18:05:27.266Z,14.86
2022-11-03T18:07:55.412Z,14.62
2022-11-03T18:10:28.859Z,14.42
2022-11-03T18:13:18.221Z,14.50
2022-11-03T18:15:47.733Z,14.70
2022-11-03T18:18:18.873Z,14.77
2022-11-03T18:20:53.083Z,14.89
2022-11-03T18:23:26.001Z,14.55
2022-11-03T18:25:53.717Z,14.55
2022-11-03T18:28:20.759Z,14.56
2022-11-03T18:30:50.837Z,14.75
2022-11-03T18:33:25.885Z,14.85
2022-11-03T18:35:53.898Z,14.86
2022-11-03T18:38:24.026Z,14.68
2022-11-03T18:40:51.640Z,14.65
2022-11-03T18:43:23.397Z,14.78
2022-11-03T18:45:51.465Z,14.90
2022-11-03T18:48:21.952Z,15.00
2022-11-03T18:50:51.388Z,14.89
2022-11-03T18:53:21.602Z,14.82
2022-11-03T18:55:57.855Z,14.99
2022-11-03T18:58:25.744Z,14.97
2022-11-03T19:00:53.406Z,14.96
2022-11-03T19:03:22.801Z,15.02
2022-11-03T19:05:51.806Z,14.99
2022-11-03T19:08:30.572Z,14.99
2022-11-03T19:11:03.831Z,14.67
2022-11-03T19:13:37.814Z,14.36
2022-11-03T19:16:14.815Z,14.19
2022-11-03T19:18:43.038Z,14.23
2022-11-03T19:21:21.808Z,14.20
2022-11-03T19:23:49.671Z,14.00
2022-11-03T19:26:24.961Z,13.95
2022-11-03T19:28:56.358Z,13.95
2022-11-03T19:31:34.060Z,13.87
2022-11-03T19:34:01.928Z,13.86
2022-11-03T19:36:31.466Z,14.35
2022-11-03T19:38:59.527Z,14.52
2022-11-03T19:41:45.397Z,13.98
2022-11-03T19:44:13.837Z,13.76
2022-11-03T19:46:42.188Z,14.07
2022-11-03T19:49:15.138Z,14.24
2022-11-03T19:51:42.266Z,14.08
2022-11-03T19:54:18.271Z,13.82
2022-11-03T19:56:48.347Z,13.84
2022-11-03T19:59:16.832Z,14.07
2022-11-03T20:01:44.038Z,14.31
2022-11-03T20:04:11.097Z,14.27
2022-11-03T20:06:39.035Z,14.23
2022-11-03T20:09:08.708Z,14.26
2022-11-03T20:11:36.376Z,14.04
2022-11-03T20:14:04.339Z,13.73
2022-11-03T20:16:31.783Z,13.93
2022-11-03T20:18:58.689Z,13.99
2022-11-03T20:21:31.476Z,14.14
2022-11-03T20:24:01.214Z,14.17
2022-11-03T20:26:28.793Z,14.20
2022-11-03T20:28:58.413Z,14.28
2022-11-03T20:31:25.637Z,14.30
2022-11-03T20:33:52.558Z,14.39
2022-11-03T20:36:20.969Z,14.31
2022-11-03T20:38:52.743Z,14.33
2022-11-03T20:41:19.877Z,14.41
2022-11-03T20:43:47.776Z,14.26
2022-11-03T20:46:31.405Z,13.17
2022-11-03T20:48:59.228Z,13.21
2022-11-03T20:51:31.917Z,13.12
2022-11-03T20:53:59.619Z,13.25
2022-11-03T20:56:28.464Z,12.37
2022-11-03T20:58:56.092Z,12.36
2022-11-03T21:01:33.377Z,12.64
2022-11-03T21:04:01.774Z,12.74
2022-11-03T21:06:30.818Z,12.44
2022-11-03T21:08:59.048Z,12.03
2022-11-03T21:11:29.300Z,12.42
2022-11-03T21:14:11.748Z,12.98
2022-11-03T21:16:57.104Z,13.49
2022-11-03T21:19:45.297Z,13.42
2022-11-03T21:22:30.852Z,13.57
2022-11-03T21:25:01.656Z,14.03
2022-11-03T21:27:28.694Z,14.30
2022-11-03T21:29:59.277Z,14.44
2022-11-03T21:32:26.868Z,14.67
2022-11-03T21:34:53.785Z,14.83
2022-11-03T21:37:20.808Z,14.86
2022-11-03T21:39:47.761Z,14.92
2022-11-03T21:42:34.478Z,14.89
2022-11-03T21:45:01.648Z,14.35
2022-11-03T21:47:28.802Z,14.08
2022-11-03T21:49:55.813Z,13.82
2022-11-03T21:52:32.098Z,13.60
2022-11-03T21:55:03.325Z,13.30
2022-11-03T21:57:31.117Z,13.21
2022-11-03T22:00:00.937Z,13.19
2022-11-03T22:02:30.125Z,13.40
2022-11-03T22:04:57.927Z,13.55
2022-11-03T22:07:25.161Z,13.99
2022-11-03T22:09:52.288Z,13.72
2022-11-03T22:12:19.182Z,13.36
2022-11-03T22:15:04.589Z,13.31
2022-11-03T22:17:31.681Z,13.27
2022-11-03T22:20:17.155Z,13.38
2022-11-03T22:23:02.847Z,13.15
2022-11-03T22:25:47.963Z,13.37
2022-11-03T22:28:15.412Z,13.66
2022-11-03T22:31:00.926Z,13.53
2022-11-03T22:33:27.861Z,13.61
2022-11-03T22:36:21.553Z,13.65
2022-11-03T22:39:07.277Z,13.41
2022-11-03T22:41:52.915Z,13.05
2022-11-03T22:44:42.680Z,13.13
2022-11-03T22:47:11.226Z,13.30
2022-11-03T22:49:39.105Z,13.47
2022-11-03T22:52:05.978Z,13.37
2022-11-03T22:54:32.980Z,13.27
2022-11-03T22:56:59.886Z,13.25
2022-11-03T22:59:26.763Z,13.08
2022-11-03T23:01:54.202Z,13.20
2022-11-03T23:04:21.243Z,12.96
2022-11-03T23:06:48.254Z,12.63
2022-11-03T23:09:15.180Z,12.65
2022-11-03T23:11:42.218Z,12.93
2022-11-03T23:14:11.224Z,12.97
2022-11-03T23:16:43.285Z,12.89
2022-11-03T23:19:30.092Z,12.80
2022-11-03T23:21:57.516Z,12.76
2022-11-03T23:24:45.324Z,13.07
2022-11-03T23:27:12.860Z,12.77
2022-11-03T23:29:40.056Z,12.62
2022-11-03T23:32:07.218Z,12.22
2022-11-03T23:34:35.327Z,12.20
2022-11-03T23:37:03.129Z,12.29
2022-11-03T23:39:30.049Z,12.14
2022-11-03T23:41:57.026Z,11.88
2022-11-03T23:44:23.983Z,11.71
2022-11-03T23:47:09.393Z,11.83
2022-11-03T23:49:36.424Z,12.00
2022-11-03T23:52:03.352Z,11.97
2022-11-03T23:54:30.610Z,11.96
2022-11-03T23:57:16.395Z,11.87
2022-11-03T23:59:46.363Z,12.01
